sensor_id;sensor_type;location;lat;lon;timestamp;temperature;humidity
43991;DHT22;29654;50.784;20.604;2024-01-16T00:02:01;6.40;56.60
43991;DHT22;29654;50.784;20.604;2024-01-16T00:07:04;6.40;57.40
43991;DHT22;29654;50.784;20.604;2024-01-16T00:12:08;6.30;56.80
43991;DHT22;29654;50.784;20.604;2024-01-16T00:17:12;6.20;56.80
43991;DHT22;29654;50.784;20.604;2024-01-16T00:22:15;6.10;56.80
43991;DHT22;29654;50.784;20.604;2024-01-16T00:27:17;6.00;57.00
43991;DHT22;29654;50.784;20.604;2024-01-16T00:32:21;6.00;57.10
43991;DHT22;29654;50.784;20.604;2024-01-16T00:37:24;5.90;57.30
43991;DHT22;29654;50.784;20.604;2024-01-16T00:42:27;5.90;57.40
43991;DHT22;29654;50.784;20.604;2024-01-16T00:47:31;6.00;57.40
43991;DHT22;29654;50.784;20.604;2024-01-16T00:52:33;6.00;57.50
43991;DHT22;29654;50.784;20.604;2024-01-16T00:57:36;6.10;57.50
43991;DHT22;29654;50.784;20.604;2024-01-16T01:02:40;6.10;57.50
43991;DHT22;29654;50.784;20.604;2024-01-16T01:07:43;6.20;57.40
43991;DHT22;29654;50.784;20.604;2024-01-16T01:12:46;6.20;57.30
43991;DHT22;29654;50.784;20.604;2024-01-16T01:17:50;6.30;57.40
43991;DHT22;29654;50.784;20.604;2024-01-16T01:22:53;6.30;57.10
43991;DHT22;29654;50.784;20.604;2024-01-16T01:27:55;6.30;56.80
43991;DHT22;29654;50.784;20.604;2024-01-16T01:33:00;6.30;56.60
43991;DHT22;29654;50.784;20.604;2024-01-16T01:38:02;6.20;56.50
43991;DHT22;29654;50.784;20.604;2024-01-16T01:43:19;6.20;56.50
43991;DHT22;29654;50.784;20.604;2024-01-16T01:48:23;6.10;56.20
43991;DHT22;29654;50.784;20.604;2024-01-16T01:53:26;6.00;56.30
43991;DHT22;29654;50.784;20.604;2024-01-16T01:58:29;6.00;56.40
43991;DHT22;29654;50.784;20.604;2024-01-16T02:03:45;6.00;56.40
43991;DHT22;29654;50.784;20.604;2024-01-16T02:08:48;6.00;56.20
43991;DHT22;29654;50.784;20.604;2024-01-16T02:13:51;6.00;56.40
43991;DHT22;29654;50.784;20.604;2024-01-16T02:18:55;6.00;56.30
43991;DHT22;29654;50.784;20.604;2024-01-16T02:23:59;6.00;56.40
43991;DHT22;29654;50.784;20.604;2024-01-16T02:29:02;6.00;56.30
43991;DHT22;29654;50.784;20.604;2024-01-16T02:34:05;6.10;56.30
43991;DHT22;29654;50.784;20.604;2024-01-16T02:39:09;6.10;56.20
43991;DHT22;29654;50.784;20.604;2024-01-16T02:44:12;6.10;56.10
43991;DHT22;29654;50.784;20.604;2024-01-16T02:49:15;6.10;56.00
43991;DHT22;29654;50.784;20.604;2024-01-16T02:54:20;6.00;56.00
43991;DHT22;29654;50.784;20.604;2024-01-16T02:59:23;6.00;55.90
43991;DHT22;29654;50.784;20.604;2024-01-16T03:04:25;6.00;55.90
43991;DHT22;29654;50.784;20.604;2024-01-16T03:09:29;5.90;55.60
43991;DHT22;29654;50.784;20.604;2024-01-16T03:14:32;5.70;55.50
43991;DHT22;29654;50.784;20.604;2024-01-16T03:19:37;5.60;55.60
43991;DHT22;29654;50.784;20.604;2024-01-16T03:24:41;5.50;55.60
43991;DHT22;29654;50.784;20.604;2024-01-16T03:29:44;5.40;55.60
43991;DHT22;29654;50.784;20.604;2024-01-16T03:34:47;5.30;55.80
43991;DHT22;29654;50.784;20.604;2024-01-16T03:39:51;5.20;55.70
43991;DHT22;29654;50.784;20.604;2024-01-16T03:44:55;5.20;56.40
43991;DHT22;29654;50.784;20.604;2024-01-16T03:49:58;5.20;55.90
43991;DHT22;29654;50.784;20.604;2024-01-16T03:55:02;5.20;55.90
43991;DHT22;29654;50.784;20.604;2024-01-16T04:00:07;5.20;55.80
43991;DHT22;29654;50.784;20.604;2024-01-16T04:05:13;5.20;55.80
43991;DHT22;29654;50.784;20.604;2024-01-16T04:10:17;5.20;55.80
43991;DHT22;29654;50.784;20.604;2024-01-16T04:15:20;5.20;55.70
43991;DHT22;29654;50.784;20.604;2024-01-16T04:20:23;5.20;55.70
43991;DHT22;29654;50.784;20.604;2024-01-16T04:25:27;5.10;55.60
43991;DHT22;29654;50.784;20.604;2024-01-16T04:30:30;5.20;56.30
43991;DHT22;29654;50.784;20.604;2024-01-16T04:35:33;5.10;55.60
43991;DHT22;29654;50.784;20.604;2024-01-16T04:40:37;5.20;55.60
43991;DHT22;29654;50.784;20.604;2024-01-16T04:45:39;5.10;55.50
43991;DHT22;29654;50.784;20.604;2024-01-16T04:50:42;5.10;55.60
43991;DHT22;29654;50.784;20.604;2024-01-16T04:55:47;5.10;55.50
43991;DHT22;29654;50.784;20.604;2024-01-16T05:00:50;5.00;55.40
43991;DHT22;29654;50.784;20.604;2024-01-16T05:05:53;5.00;55.50
43991;DHT22;29654;50.784;20.604;2024-01-16T05:10:58;5.00;55.50
43991;DHT22;29654;50.784;20.604;2024-01-16T05:16:01;5.10;55.40
43991;DHT22;29654;50.784;20.604;2024-01-16T05:21:04;5.10;55.30
43991;DHT22;29654;50.784;20.604;2024-01-16T05:26:09;5.10;55.20
43991;DHT22;29654;50.784;20.604;2024-01-16T05:31:12;5.10;55.20
43991;DHT22;29654;50.784;20.604;2024-01-16T05:36:16;5.10;55.10
43991;DHT22;29654;50.784;20.604;2024-01-16T05:41:20;5.20;55.10
43991;DHT22;29654;50.784;20.604;2024-01-16T05:46:23;5.20;55.00
43991;DHT22;29654;50.784;20.604;2024-01-16T05:51:27;5.20;55.10
43991;DHT22;29654;50.784;20.604;2024-01-16T05:56:32;5.20;55.00
43991;DHT22;29654;50.784;20.604;2024-01-16T06:01:35;5.30;55.00
43991;DHT22;29654;50.784;20.604;2024-01-16T06:06:38;5.20;54.90
43991;DHT22;29654;50.784;20.604;2024-01-16T06:11:46;5.20;54.80
43991;DHT22;29654;50.784;20.604;2024-01-16T06:16:50;5.20;54.70
43991;DHT22;29654;50.784;20.604;2024-01-16T06:21:53;5.20;54.80
43991;DHT22;29654;50.784;20.604;2024-01-16T06:26:58;5.10;54.80
43991;DHT22;29654;50.784;20.604;2024-01-16T06:32:00;5.10;54.90
43991;DHT22;29654;50.784;20.604;2024-01-16T06:37:04;5.00;54.90
43991;DHT22;29654;50.784;20.604;2024-01-16T06:42:08;5.00;55.10
43991;DHT22;29654;50.784;20.604;2024-01-16T06:47:11;4.90;55.00
43991;DHT22;29654;50.784;20.604;2024-01-16T06:52:13;4.90;55.20
43991;DHT22;29654;50.784;20.604;2024-01-16T06:57:17;4.90;55.20
43991;DHT22;29654;50.784;20.604;2024-01-16T07:02:20;4.90;55.00
43991;DHT22;29654;50.784;20.604;2024-01-16T07:07:23;4.80;55.00
43991;DHT22;29654;50.784;20.604;2024-01-16T07:12:27;4.80;55.00
43991;DHT22;29654;50.784;20.604;2024-01-16T07:17:30;4.70;55.00
43991;DHT22;29654;50.784;20.604;2024-01-16T07:22:33;4.60;55.00
43991;DHT22;29654;50.784;20.604;2024-01-16T07:27:37;4.60;55.00
43991;DHT22;29654;50.784;20.604;2024-01-16T07:32:40;4.50;55.00
43991;DHT22;29654;50.784;20.604;2024-01-16T07:37:43;4.50;55.20
43991;DHT22;29654;50.784;20.604;2024-01-16T07:42:47;4.50;55.20
43991;DHT22;29654;50.784;20.604;2024-01-16T07:47:50;4.50;55.20
43991;DHT22;29654;50.784;20.604;2024-01-16T07:52:52;4.50;55.20
43991;DHT22;29654;50.784;20.604;2024-01-16T07:57:56;4.50;55.20
43991;DHT22;29654;50.784;20.604;2024-01-16T08:02:59;4.60;55.80
43991;DHT22;29654;50.784;20.604;2024-01-16T08:08:02;4.60;55.20
43991;DHT22;29654;50.784;20.604;2024-01-16T08:13:07;4.60;55.00
43991;DHT22;29654;50.784;20.604;2024-01-16T08:18:10;4.60;54.90
43991;DHT22;29654;50.784;20.604;2024-01-16T08:23:13;4.70;55.10
43991;DHT22;29654;50.784;20.604;2024-01-16T08:28:17;4.80;55.20
43991;DHT22;29654;50.784;20.604;2024-01-16T08:33:20;4.90;55.50
43991;DHT22;29654;50.784;20.604;2024-01-16T08:38:23;5.10;55.60
43991;DHT22;29654;50.784;20.604;2024-01-16T08:43:27;5.40;55.60
43991;DHT22;29654;50.784;20.604;2024-01-16T08:48:29;5.60;55.40
43991;DHT22;29654;50.784;20.604;2024-01-16T08:53:32;5.80;55.20
43991;DHT22;29654;50.784;20.604;2024-01-16T08:58:38;6.00;54.90
43991;DHT22;29654;50.784;20.604;2024-01-16T09:03:41;6.10;54.40
43991;DHT22;29654;50.784;20.604;2024-01-16T09:08:45;6.00;53.90
43991;DHT22;29654;50.784;20.604;2024-01-16T09:13:49;6.00;53.90
43991;DHT22;29654;50.784;20.604;2024-01-16T09:18:52;5.90;53.50
43991;DHT22;29654;50.784;20.604;2024-01-16T09:23:55;5.80;53.50
43991;DHT22;29654;50.784;20.604;2024-01-16T09:28:59;5.70;53.50
43991;DHT22;29654;50.784;20.604;2024-01-16T09:34:02;5.60;53.50
43991;DHT22;29654;50.784;20.604;2024-01-16T09:39:06;5.60;53.80
43991;DHT22;29654;50.784;20.604;2024-01-16T09:44:11;5.50;53.80
43991;DHT22;29654;50.784;20.604;2024-01-16T09:49:14;5.60;53.90
43991;DHT22;29654;50.784;20.604;2024-01-16T09:54:18;5.60;54.00
43991;DHT22;29654;50.784;20.604;2024-01-16T09:59:22;5.60;54.00
43991;DHT22;29654;50.784;20.604;2024-01-16T10:04:26;5.70;54.00
43991;DHT22;29654;50.784;20.604;2024-01-16T10:09:29;5.70;54.00
43991;DHT22;29654;50.784;20.604;2024-01-16T10:14:33;5.80;54.10
43991;DHT22;29654;50.784;20.604;2024-01-16T10:19:48;5.90;53.80
43991;DHT22;29654;50.784;20.604;2024-01-16T10:25:04;6.00;53.60
43991;DHT22;29654;50.784;20.604;2024-01-16T10:30:09;6.10;53.30
43991;DHT22;29654;50.784;20.604;2024-01-16T10:35:13;6.10;53.60
43991;DHT22;29654;50.784;20.604;2024-01-16T10:40:17;6.20;53.40
43991;DHT22;29654;50.784;20.604;2024-01-16T10:45:22;6.10;53.20
43991;DHT22;29654;50.784;20.604;2024-01-16T10:50:25;6.00;53.10
43991;DHT22;29654;50.784;20.604;2024-01-16T10:55:28;5.90;53.30
43991;DHT22;29654;50.784;20.604;2024-01-16T11:00:33;5.80;53.20
43991;DHT22;29654;50.784;20.604;2024-01-16T11:05:39;5.80;53.10
43991;DHT22;29654;50.784;20.604;2024-01-16T11:10:43;5.70;53.40
43991;DHT22;29654;50.784;20.604;2024-01-16T11:15:48;5.70;53.50
43991;DHT22;29654;50.784;20.604;2024-01-16T11:20:52;5.80;53.40
43991;DHT22;29654;50.784;20.604;2024-01-16T11:25:56;5.80;53.50
43991;DHT22;29654;50.784;20.604;2024-01-16T11:31:30;5.80;53.50
43991;DHT22;29654;50.784;20.604;2024-01-16T11:36:51;5.90;52.90
43991;DHT22;29654;50.784;20.604;2024-01-16T11:41:56;5.90;52.90
43991;DHT22;29654;50.784;20.604;2024-01-16T11:47:04;5.90;53.50
43991;DHT22;29654;50.784;20.604;2024-01-16T11:52:08;6.00;53.10
43991;DHT22;29654;50.784;20.604;2024-01-16T11:57:49;6.00;53.20
43991;DHT22;29654;50.784;20.604;2024-01-16T12:03:01;6.00;52.60
43991;DHT22;29654;50.784;20.604;2024-01-16T12:08:05;6.00;52.90
43991;DHT22;29654;50.784;20.604;2024-01-16T12:13:08;6.00;53.10
43991;DHT22;29654;50.784;20.604;2024-01-16T12:18:19;6.00;52.90
43991;DHT22;29654;50.784;20.604;2024-01-16T12:23:22;6.10;52.60
43991;DHT22;29654;50.784;20.604;2024-01-16T12:28:25;6.10;52.80
43991;DHT22;29654;50.784;20.604;2024-01-16T12:33:29;6.20;53.10
43991;DHT22;29654;50.784;20.604;2024-01-16T12:38:32;6.30;53.00
43991;DHT22;29654;50.784;20.604;2024-01-16T12:43:36;6.40;53.00
43991;DHT22;29654;50.784;20.604;2024-01-16T12:48:41;6.40;53.00
43991;DHT22;29654;50.784;20.604;2024-01-16T12:53:44;6.50;52.80
43991;DHT22;29654;50.784;20.604;2024-01-16T12:58:47;6.60;52.90
43991;DHT22;29654;50.784;20.604;2024-01-16T13:03:52;6.60;52.60
43991;DHT22;29654;50.784;20.604;2024-01-16T13:09:05;6.60;52.10
43991;DHT22;29654;50.784;20.604;2024-01-16T13:14:10;6.60;51.80
43991;DHT22;29654;50.784;20.604;2024-01-16T13:19:17;6.60;52.50
43991;DHT22;29654;50.784;20.604;2024-01-16T13:24:20;6.60;52.10
43991;DHT22;29654;50.784;20.604;2024-01-16T13:29:24;6.70;52.40
43991;DHT22;29654;50.784;20.604;2024-01-16T13:34:28;6.70;52.20
43991;DHT22;29654;50.784;20.604;2024-01-16T13:39:31;6.80;52.10
43991;DHT22;29654;50.784;20.604;2024-01-16T13:44:39;6.80;52.10
43991;DHT22;29654;50.784;20.604;2024-01-16T13:49:43;6.80;51.80
43991;DHT22;29654;50.784;20.604;2024-01-16T13:54:47;6.70;51.80
43991;DHT22;29654;50.784;20.604;2024-01-16T13:59:49;6.70;51.90
43991;DHT22;29654;50.784;20.604;2024-01-16T14:04:55;6.70;52.00
43991;DHT22;29654;50.784;20.604;2024-01-16T14:09:58;6.70;52.10
43991;DHT22;29654;50.784;20.604;2024-01-16T14:15:03;6.70;52.30
43991;DHT22;29654;50.784;20.604;2024-01-16T14:20:19;6.70;52.20
43991;DHT22;29654;50.784;20.604;2024-01-16T14:25:24;6.80;52.00
43991;DHT22;29654;50.784;20.604;2024-01-16T14:30:28;6.70;51.90
43991;DHT22;29654;50.784;20.604;2024-01-16T14:35:36;6.70;51.70
43991;DHT22;29654;50.784;20.604;2024-01-16T14:40:39;6.50;51.40
43991;DHT22;29654;50.784;20.604;2024-01-16T14:45:42;6.30;51.50
43991;DHT22;29654;50.784;20.604;2024-01-16T14:50:47;6.10;51.30
43991;DHT22;29654;50.784;20.604;2024-01-16T14:55:51;5.90;51.50
43991;DHT22;29654;50.784;20.604;2024-01-16T15:00:54;5.80;51.60
43991;DHT22;29654;50.784;20.604;2024-01-16T15:05:59;5.60;51.70
43991;DHT22;29654;50.784;20.604;2024-01-16T15:11:02;5.40;51.80
43991;DHT22;29654;50.784;20.604;2024-01-16T15:16:06;5.30;51.90
43991;DHT22;29654;50.784;20.604;2024-01-16T15:21:11;5.20;52.00
43991;DHT22;29654;50.784;20.604;2024-01-16T15:26:15;5.10;52.00
43991;DHT22;29654;50.784;20.604;2024-01-16T15:31:22;5.00;52.10
43991;DHT22;29654;50.784;20.604;2024-01-16T15:36:27;4.90;52.00
43991;DHT22;29654;50.784;20.604;2024-01-16T15:41:29;4.80;51.90
43991;DHT22;29654;50.784;20.604;2024-01-16T15:46:32;4.70;52.00
43991;DHT22;29654;50.784;20.604;2024-01-16T15:51:36;4.60;52.10
43991;DHT22;29654;50.784;20.604;2024-01-16T15:56:39;4.60;52.10
43991;DHT22;29654;50.784;20.604;2024-01-16T16:01:42;4.50;52.10
43991;DHT22;29654;50.784;20.604;2024-01-16T16:06:46;4.30;51.90
43991;DHT22;29654;50.784;20.604;2024-01-16T16:11:48;4.20;51.90
43991;DHT22;29654;50.784;20.604;2024-01-16T16:16:52;4.00;51.70
43991;DHT22;29654;50.784;20.604;2024-01-16T16:21:56;3.80;51.50
43991;DHT22;29654;50.784;20.604;2024-01-16T16:26:59;3.60;51.50
43991;DHT22;29654;50.784;20.604;2024-01-16T16:32:04;3.40;51.50
43991;DHT22;29654;50.784;20.604;2024-01-16T16:37:08;3.60;51.40
43991;DHT22;29654;50.784;20.604;2024-01-16T16:42:11;3.30;51.30
43991;DHT22;29654;50.784;20.604;2024-01-16T16:47:14;3.10;51.40
43991;DHT22;29654;50.784;20.604;2024-01-16T16:52:20;2.80;51.50
43991;DHT22;29654;50.784;20.604;2024-01-16T16:57:23;2.70;51.60
43991;DHT22;29654;50.784;20.604;2024-01-16T17:02:25;2.50;52.20
43991;DHT22;29654;50.784;20.604;2024-01-16T17:07:29;2.20;51.20
43991;DHT22;29654;50.784;20.604;2024-01-16T17:12:32;2.00;51.10
43991;DHT22;29654;50.784;20.604;2024-01-16T17:17:35;1.70;51.10
43991;DHT22;29654;50.784;20.604;2024-01-16T17:22:39;1.40;51.10
43991;DHT22;29654;50.784;20.604;2024-01-16T17:27:42;1.20;51.10
43991;DHT22;29654;50.784;20.604;2024-01-16T17:32:50;0.90;51.40
43991;DHT22;29654;50.784;20.604;2024-01-16T17:37:55;0.70;51.60
43991;DHT22;29654;50.784;20.604;2024-01-16T17:42:57;0.50;51.90
43991;DHT22;29654;50.784;20.604;2024-01-16T17:48:00;0.40;52.20
43991;DHT22;29654;50.784;20.604;2024-01-16T17:53:06;0.30;52.40
43991;DHT22;29654;50.784;20.604;2024-01-16T17:58:10;0.20;52.60
43991;DHT22;29654;50.784;20.604;2024-01-16T18:03:14;0.10;52.80
43991;DHT22;29654;50.784;20.604;2024-01-16T18:08:18;0.10;53.00
43991;DHT22;29654;50.784;20.604;2024-01-16T18:13:21;0.00;53.30
43991;DHT22;29654;50.784;20.604;2024-01-16T18:18:24;0.00;53.40
43991;DHT22;29654;50.784;20.604;2024-01-16T18:23:28;0.10;53.50
43991;DHT22;29654;50.784;20.604;2024-01-16T18:28:33;0.00;53.50
43991;DHT22;29654;50.784;20.604;2024-01-16T18:33:35;0.00;53.40
43991;DHT22;29654;50.784;20.604;2024-01-16T18:38:40;0.00;53.20
43991;DHT22;29654;50.784;20.604;2024-01-16T18:43:46;-0.10;53.10
43991;DHT22;29654;50.784;20.604;2024-01-16T18:48:49;-0.20;53.70
43991;DHT22;29654;50.784;20.604;2024-01-16T18:53:55;-0.30;53.10
43991;DHT22;29654;50.784;20.604;2024-01-16T18:58:57;-0.30;53.10
43991;DHT22;29654;50.784;20.604;2024-01-16T19:04:00;-0.40;53.10
43991;DHT22;29654;50.784;20.604;2024-01-16T19:09:05;-0.50;53.00
43991;DHT22;29654;50.784;20.604;2024-01-16T19:14:10;-0.60;52.80
43991;DHT22;29654;50.784;20.604;2024-01-16T19:19:14;-0.70;52.80
43991;DHT22;29654;50.784;20.604;2024-01-16T19:24:18;-0.80;53.10
43991;DHT22;29654;50.784;20.604;2024-01-16T19:29:21;-0.80;53.30
43991;DHT22;29654;50.784;20.604;2024-01-16T19:34:25;-0.90;53.20
43991;DHT22;29654;50.784;20.604;2024-01-16T19:39:29;-1.00;53.00
43991;DHT22;29654;50.784;20.604;2024-01-16T19:44:33;-1.10;53.00
43991;DHT22;29654;50.784;20.604;2024-01-16T19:49:36;-1.10;53.00
43991;DHT22;29654;50.784;20.604;2024-01-16T19:54:40;-1.20;53.20
43991;DHT22;29654;50.784;20.604;2024-01-16T19:59:45;-1.20;53.20
43991;DHT22;29654;50.784;20.604;2024-01-16T20:04:49;-1.30;53.30
43991;DHT22;29654;50.784;20.604;2024-01-16T20:09:54;-1.30;53.30
43991;DHT22;29654;50.784;20.604;2024-01-16T20:15:00;-1.30;53.40
43991;DHT22;29654;50.784;20.604;2024-01-16T20:20:04;-1.30;53.50
43991;DHT22;29654;50.784;20.604;2024-01-16T20:25:12;-1.30;53.60
43991;DHT22;29654;50.784;20.604;2024-01-16T20:30:16;-1.30;53.70
43991;DHT22;29654;50.784;20.604;2024-01-16T20:35:18;-1.30;53.80
43991;DHT22;29654;50.784;20.604;2024-01-16T20:40:24;-1.20;54.00
43991;DHT22;29654;50.784;20.604;2024-01-16T20:45:27;-1.20;54.10
43991;DHT22;29654;50.784;20.604;2024-01-16T20:50:30;-1.10;54.10
43991;DHT22;29654;50.784;20.604;2024-01-16T20:55:34;-1.10;54.20
43991;DHT22;29654;50.784;20.604;2024-01-16T21:00:39;-1.00;54.30
43991;DHT22;29654;50.784;20.604;2024-01-16T21:05:41;-0.80;55.20
43991;DHT22;29654;50.784;20.604;2024-01-16T21:10:46;-0.70;54.70
43991;DHT22;29654;50.784;20.604;2024-01-16T21:15:49;-0.60;54.90
43991;DHT22;29654;50.784;20.604;2024-01-16T21:20:51;-0.50;54.80
43991;DHT22;29654;50.784;20.604;2024-01-16T21:25:56;-0.40;54.90
43991;DHT22;29654;50.784;20.604;2024-01-16T21:30:58;-0.30;54.90
43991;DHT22;29654;50.784;20.604;2024-01-16T21:36:13;-0.10;55.00
43991;DHT22;29654;50.784;20.604;2024-01-16T21:41:17;0.00;55.00
43991;DHT22;29654;50.784;20.604;2024-01-16T21:46:20;0.10;55.00
43991;DHT22;29654;50.784;20.604;2024-01-16T21:51:23;0.20;54.90
43991;DHT22;29654;50.784;20.604;2024-01-16T21:56:27;0.20;54.80
43991;DHT22;29654;50.784;20.604;2024-01-16T22:01:29;0.30;54.80
43991;DHT22;29654;50.784;20.604;2024-01-16T22:06:32;0.40;54.80
43991;DHT22;29654;50.784;20.604;2024-01-16T22:11:40;0.50;54.80
43991;DHT22;29654;50.784;20.604;2024-01-16T22:16:42;0.60;54.80
43991;DHT22;29654;50.784;20.604;2024-01-16T22:21:45;0.70;54.80
43991;DHT22;29654;50.784;20.604;2024-01-16T22:26:49;0.80;54.80
43991;DHT22;29654;50.784;20.604;2024-01-16T22:31:52;0.90;54.80
43991;DHT22;29654;50.784;20.604;2024-01-16T22:36:55;0.90;54.70
43991;DHT22;29654;50.784;20.604;2024-01-16T22:41:59;1.00;54.70
43991;DHT22;29654;50.784;20.604;2024-01-16T22:47:02;1.00;54.80
43991;DHT22;29654;50.784;20.604;2024-01-16T22:52:06;1.10;54.90
43991;DHT22;29654;50.784;20.604;2024-01-16T22:57:10;1.20;54.90
43991;DHT22;29654;50.784;20.604;2024-01-16T23:02:13;1.20;54.90
43991;DHT22;29654;50.784;20.604;2024-01-16T23:07:16;1.30;54.80
43991;DHT22;29654;50.784;20.604;2024-01-16T23:12:20;1.40;54.90
43991;DHT22;29654;50.784;20.604;2024-01-16T23:17:23;1.40;54.80
43991;DHT22;29654;50.784;20.604;2024-01-16T23:22:25;1.40;54.70
43991;DHT22;29654;50.784;20.604;2024-01-16T23:27:32;1.50;54.70
43991;DHT22;29654;50.784;20.604;2024-01-16T23:32:35;1.50;54.70
43991;DHT22;29654;50.784;20.604;2024-01-16T23:37:38;1.50;54.60
43991;DHT22;29654;50.784;20.604;2024-01-16T23:42:43;1.50;54.40
43991;DHT22;29654;50.784;20.604;2024-01-16T23:47:46;1.40;54.40
43991;DHT22;29654;50.784;20.604;2024-01-16T23:52:49;1.40;54.30
43991;DHT22;29654;50.784;20.604;2024-01-16T23:57:53;1.40;54.40
